sensor_id;sensor_type;location;lat;lon;timestamp;P1;durP1;ratioP1;P2;durP2;ratioP2
64199;SDS011;50516;52.272;5.136;2023-08-21T00:01:00;7.82;;;2.92;;
64199;SDS011;50516;52.272;5.136;2023-08-21T00:03:26;7.05;;;2.70;;
64199;SDS011;50516;52.272;5.136;2023-08-21T00:05:51;6.75;;;3.10;;
64199;SDS011;50516;52.272;5.136;2023-08-21T00:08:17;7.10;;;2.95;;
64199;SDS011;50516;52.272;5.136;2023-08-21T00:10:42;8.75;;;3.60;;
64199;SDS011;50516;52.272;5.136;2023-08-21T00:13:07;6.10;;;3.35;;
64199;SDS011;50516;52.272;5.136;2023-08-21T00:15:33;9.40;;;3.22;;
64199;SDS011;50516;52.272;5.136;2023-08-21T00:17:58;5.20;;;3.20;;
64199;SDS011;50516;52.272;5.136;2023-08-21T00:20:25;7.10;;;3.10;;
64199;SDS011;50516;52.272;5.136;2023-08-21T00:22:50;7.25;;;3.05;;
64199;SDS011;50516;52.272;5.136;2023-08-21T00:25:16;10.32;;;3.58;;
64199;SDS011;50516;52.272;5.136;2023-08-21T00:27:41;10.90;;;3.38;;
64199;SDS011;50516;52.272;5.136;2023-08-21T00:30:07;10.93;;;3.28;;
64199;SDS011;50516;52.272;5.136;2023-08-21T00:32:33;6.70;;;2.75;;
64199;SDS011;50516;52.272;5.136;2023-08-21T00:34:58;6.38;;;3.03;;
64199;SDS011;50516;52.272;5.136;2023-08-21T00:37:23;7.43;;;3.30;;
64199;SDS011;50516;52.272;5.136;2023-08-21T00:39:48;7.53;;;3.13;;
64199;SDS011;50516;52.272;5.136;2023-08-21T00:42:14;8.07;;;3.08;;
64199;SDS011;50516;52.272;5.136;2023-08-21T00:44:39;8.75;;;4.10;;
64199;SDS011;50516;52.272;5.136;2023-08-21T00:47:05;4.57;;;2.50;;
64199;SDS011;50516;52.272;5.136;2023-08-21T00:49:30;9.98;;;3.33;;
64199;SDS011;50516;52.272;5.136;2023-08-21T00:51:56;10.35;;;4.13;;
64199;SDS011;50516;52.272;5.136;2023-08-21T00:54:21;9.18;;;3.00;;
64199;SDS011;50516;52.272;5.136;2023-08-21T00:56:48;6.15;;;2.80;;
64199;SDS011;50516;52.272;5.136;2023-08-21T00:59:15;6.65;;;3.00;;
64199;SDS011;50516;52.272;5.136;2023-08-21T01:01:41;6.15;;;3.03;;
64199;SDS011;50516;52.272;5.136;2023-08-21T01:04:06;4.97;;;2.55;;
64199;SDS011;50516;52.272;5.136;2023-08-21T01:06:33;9.68;;;3.05;;
64199;SDS011;50516;52.272;5.136;2023-08-21T01:09:04;7.65;;;4.05;;
64199;SDS011;50516;52.272;5.136;2023-08-21T01:11:49;7.40;;;3.15;;
64199;SDS011;50516;52.272;5.136;2023-08-21T01:16:54;7.60;;;3.58;;
64199;SDS011;50516;52.272;5.136;2023-08-21T01:19:35;5.38;;;2.53;;
64199;SDS011;50516;52.272;5.136;2023-08-21T01:22:02;11.45;;;4.60;;
64199;SDS011;50516;52.272;5.136;2023-08-21T01:24:28;8.45;;;3.15;;
64199;SDS011;50516;52.272;5.136;2023-08-21T01:26:53;8.30;;;2.80;;
64199;SDS011;50516;52.272;5.136;2023-08-21T01:29:18;5.75;;;2.90;;
64199;SDS011;50516;52.272;5.136;2023-08-21T01:31:45;8.50;;;3.00;;
64199;SDS011;50516;52.272;5.136;2023-08-21T01:34:20;6.78;;;2.85;;
64199;SDS011;50516;52.272;5.136;2023-08-21T01:36:46;6.93;;;2.63;;
64199;SDS011;50516;52.272;5.136;2023-08-21T01:39:12;5.40;;;2.67;;
64199;SDS011;50516;52.272;5.136;2023-08-21T01:41:38;6.25;;;3.13;;
64199;SDS011;50516;52.272;5.136;2023-08-21T01:44:03;6.80;;;3.13;;
64199;SDS011;50516;52.272;5.136;2023-08-21T01:46:28;9.10;;;3.05;;
64199;SDS011;50516;52.272;5.136;2023-08-21T01:48:54;7.10;;;2.83;;
64199;SDS011;50516;52.272;5.136;2023-08-21T01:51:19;8.48;;;2.90;;
64199;SDS011;50516;52.272;5.136;2023-08-21T01:53:45;5.97;;;3.03;;
64199;SDS011;50516;52.272;5.136;2023-08-21T01:56:11;6.53;;;3.05;;
64199;SDS011;50516;52.272;5.136;2023-08-21T01:58:36;6.72;;;2.72;;
64199;SDS011;50516;52.272;5.136;2023-08-21T02:01:01;8.15;;;2.90;;
64199;SDS011;50516;52.272;5.136;2023-08-21T02:03:28;8.02;;;3.42;;
64199;SDS011;50516;52.272;5.136;2023-08-21T02:05:56;7.53;;;2.67;;
64199;SDS011;50516;52.272;5.136;2023-08-21T02:08:27;7.88;;;3.13;;
64199;SDS011;50516;52.272;5.136;2023-08-21T02:10:57;6.28;;;3.25;;
64199;SDS011;50516;52.272;5.136;2023-08-21T02:13:22;6.80;;;2.95;;
64199;SDS011;50516;52.272;5.136;2023-08-21T02:15:47;8.32;;;2.78;;
64199;SDS011;50516;52.272;5.136;2023-08-21T02:18:13;7.72;;;3.40;;
64199;SDS011;50516;52.272;5.136;2023-08-21T02:20:38;6.95;;;3.03;;
64199;SDS011;50516;52.272;5.136;2023-08-21T02:23:03;5.72;;;2.75;;
64199;SDS011;50516;52.272;5.136;2023-08-21T02:25:29;7.57;;;3.13;;
64199;SDS011;50516;52.272;5.136;2023-08-21T02:27:55;7.03;;;3.10;;
64199;SDS011;50516;52.272;5.136;2023-08-21T02:30:20;5.35;;;2.95;;
64199;SDS011;50516;52.272;5.136;2023-08-21T02:32:50;7.13;;;2.80;;
64199;SDS011;50516;52.272;5.136;2023-08-21T02:35:15;4.57;;;2.80;;
64199;SDS011;50516;52.272;5.136;2023-08-21T02:37:41;5.65;;;2.72;;
64199;SDS011;50516;52.272;5.136;2023-08-21T02:40:06;7.40;;;2.80;;
64199;SDS011;50516;52.272;5.136;2023-08-21T02:42:35;4.25;;;2.60;;
64199;SDS011;50516;52.272;5.136;2023-08-21T02:45:01;5.20;;;2.78;;
64199;SDS011;50516;52.272;5.136;2023-08-21T02:47:29;5.80;;;2.65;;
64199;SDS011;50516;52.272;5.136;2023-08-21T02:49:54;6.88;;;2.92;;
64199;SDS011;50516;52.272;5.136;2023-08-21T02:52:20;5.45;;;2.50;;
64199;SDS011;50516;52.272;5.136;2023-08-21T02:54:45;6.20;;;2.78;;
64199;SDS011;50516;52.272;5.136;2023-08-21T02:57:10;6.35;;;2.63;;
64199;SDS011;50516;52.272;5.136;2023-08-21T02:59:36;5.93;;;2.83;;
64199;SDS011;50516;52.272;5.136;2023-08-21T03:02:01;7.38;;;2.88;;
64199;SDS011;50516;52.272;5.136;2023-08-21T03:04:26;10.13;;;2.92;;
64199;SDS011;50516;52.272;5.136;2023-08-21T03:06:52;9.60;;;2.92;;
64199;SDS011;50516;52.272;5.136;2023-08-21T03:09:17;7.10;;;3.22;;
64199;SDS011;50516;52.272;5.136;2023-08-21T03:11:42;5.35;;;2.42;;
64199;SDS011;50516;52.272;5.136;2023-08-21T03:14:08;7.60;;;3.50;;
64199;SDS011;50516;52.272;5.136;2023-08-21T03:16:33;8.85;;;3.10;;
64199;SDS011;50516;52.272;5.136;2023-08-21T03:18:59;5.63;;;2.92;;
64199;SDS011;50516;52.272;5.136;2023-08-21T03:21:25;6.80;;;3.20;;
64199;SDS011;50516;52.272;5.136;2023-08-21T03:23:53;9.13;;;3.22;;
64199;SDS011;50516;52.272;5.136;2023-08-21T03:26:20;7.38;;;3.17;;
64199;SDS011;50516;52.272;5.136;2023-08-21T03:28:45;5.25;;;2.72;;
64199;SDS011;50516;52.272;5.136;2023-08-21T03:31:10;7.28;;;3.08;;
64199;SDS011;50516;52.272;5.136;2023-08-21T03:33:36;6.53;;;2.80;;
64199;SDS011;50516;52.272;5.136;2023-08-21T03:36:01;8.80;;;3.15;;
64199;SDS011;50516;52.272;5.136;2023-08-21T03:38:26;9.57;;;2.72;;
64199;SDS011;50516;52.272;5.136;2023-08-21T03:40:52;3.85;;;2.30;;
64199;SDS011;50516;52.272;5.136;2023-08-21T03:43:17;5.40;;;2.47;;
64199;SDS011;50516;52.272;5.136;2023-08-21T03:45:42;8.35;;;2.85;;
64199;SDS011;50516;52.272;5.136;2023-08-21T03:48:07;9.40;;;2.90;;
64199;SDS011;50516;52.272;5.136;2023-08-21T03:50:33;4.30;;;2.55;;
64199;SDS011;50516;52.272;5.136;2023-08-21T03:52:58;6.30;;;2.75;;
64199;SDS011;50516;52.272;5.136;2023-08-21T03:55:23;5.72;;;3.60;;
64199;SDS011;50516;52.272;5.136;2023-08-21T03:57:49;7.00;;;3.15;;
64199;SDS011;50516;52.272;5.136;2023-08-21T04:00:14;8.00;;;3.42;;
64199;SDS011;50516;52.272;5.136;2023-08-21T04:02:40;6.50;;;2.60;;
64199;SDS011;50516;52.272;5.136;2023-08-21T04:05:05;5.25;;;2.72;;
64199;SDS011;50516;52.272;5.136;2023-08-21T04:07:31;7.28;;;2.78;;
64199;SDS011;50516;52.272;5.136;2023-08-21T04:09:56;5.60;;;3.08;;
64199;SDS011;50516;52.272;5.136;2023-08-21T04:12:22;5.82;;;3.20;;
64199;SDS011;50516;52.272;5.136;2023-08-21T04:14:47;8.60;;;3.08;;
64199;SDS011;50516;52.272;5.136;2023-08-21T04:17:12;9.48;;;3.20;;
64199;SDS011;50516;52.272;5.136;2023-08-21T04:19:38;5.93;;;2.80;;
64199;SDS011;50516;52.272;5.136;2023-08-21T04:22:05;5.90;;;2.70;;
64199;SDS011;50516;52.272;5.136;2023-08-21T04:24:31;5.65;;;2.90;;
64199;SDS011;50516;52.272;5.136;2023-08-21T04:26:56;9.68;;;3.15;;
64199;SDS011;50516;52.272;5.136;2023-08-21T04:29:22;7.07;;;2.70;;
64199;SDS011;50516;52.272;5.136;2023-08-21T04:31:48;5.60;;;2.60;;
64199;SDS011;50516;52.272;5.136;2023-08-21T04:34:13;5.35;;;2.58;;
64199;SDS011;50516;52.272;5.136;2023-08-21T04:36:39;6.63;;;2.60;;
64199;SDS011;50516;52.272;5.136;2023-08-21T04:39:04;5.28;;;2.50;;
64199;SDS011;50516;52.272;5.136;2023-08-21T04:41:30;3.92;;;2.38;;
64199;SDS011;50516;52.272;5.136;2023-08-21T04:43:55;3.80;;;2.65;;
64199;SDS011;50516;52.272;5.136;2023-08-21T04:46:20;3.53;;;2.38;;
64199;SDS011;50516;52.272;5.136;2023-08-21T04:48:46;7.90;;;3.13;;
64199;SDS011;50516;52.272;5.136;2023-08-21T04:51:11;8.30;;;3.15;;
64199;SDS011;50516;52.272;5.136;2023-08-21T04:53:37;8.82;;;3.25;;
64199;SDS011;50516;52.272;5.136;2023-08-21T04:56:02;6.47;;;2.92;;
64199;SDS011;50516;52.272;5.136;2023-08-21T04:58:28;6.38;;;3.10;;
64199;SDS011;50516;52.272;5.136;2023-08-21T05:00:54;6.80;;;3.33;;
64199;SDS011;50516;52.272;5.136;2023-08-21T05:03:19;5.45;;;2.63;;
64199;SDS011;50516;52.272;5.136;2023-08-21T05:05:54;6.75;;;2.90;;
64199;SDS011;50516;52.272;5.136;2023-08-21T05:08:21;11.80;;;3.10;;
64199;SDS011;50516;52.272;5.136;2023-08-21T05:10:59;4.50;;;2.40;;
64199;SDS011;50516;52.272;5.136;2023-08-21T05:13:26;5.63;;;3.17;;
64199;SDS011;50516;52.272;5.136;2023-08-21T05:15:51;6.38;;;3.45;;
64199;SDS011;50516;52.272;5.136;2023-08-21T05:18:21;7.88;;;2.70;;
64199;SDS011;50516;52.272;5.136;2023-08-21T05:20:48;10.38;;;3.33;;
64199;SDS011;50516;52.272;5.136;2023-08-21T05:23:14;5.72;;;2.70;;
64199;SDS011;50516;52.272;5.136;2023-08-21T05:25:39;9.27;;;3.55;;
64199;SDS011;50516;52.272;5.136;2023-08-21T05:28:05;6.00;;;2.90;;
64199;SDS011;50516;52.272;5.136;2023-08-21T05:30:31;4.60;;;2.70;;
64199;SDS011;50516;52.272;5.136;2023-08-21T05:32:56;7.43;;;2.88;;
64199;SDS011;50516;52.272;5.136;2023-08-21T05:35:22;6.70;;;3.00;;
64199;SDS011;50516;52.272;5.136;2023-08-21T05:37:47;10.20;;;3.47;;
64199;SDS011;50516;52.272;5.136;2023-08-21T05:40:13;5.75;;;2.80;;
64199;SDS011;50516;52.272;5.136;2023-08-21T05:42:39;7.15;;;3.00;;
64199;SDS011;50516;52.272;5.136;2023-08-21T05:45:05;5.18;;;2.97;;
64199;SDS011;50516;52.272;5.136;2023-08-21T05:47:30;8.88;;;3.10;;
64199;SDS011;50516;52.272;5.136;2023-08-21T05:49:56;6.05;;;2.90;;
64199;SDS011;50516;52.272;5.136;2023-08-21T05:52:21;8.57;;;3.00;;
64199;SDS011;50516;52.272;5.136;2023-08-21T05:54:47;6.43;;;3.10;;
64199;SDS011;50516;52.272;5.136;2023-08-21T05:57:13;6.50;;;2.85;;
64199;SDS011;50516;52.272;5.136;2023-08-21T05:59:42;6.40;;;2.92;;
64199;SDS011;50516;52.272;5.136;2023-08-21T06:02:09;7.88;;;3.25;;
64199;SDS011;50516;52.272;5.136;2023-08-21T06:04:35;7.50;;;3.22;;
64199;SDS011;50516;52.272;5.136;2023-08-21T06:07:00;6.32;;;2.80;;
64199;SDS011;50516;52.272;5.136;2023-08-21T06:09:25;7.43;;;2.95;;
64199;SDS011;50516;52.272;5.136;2023-08-21T06:11:51;7.90;;;3.53;;
64199;SDS011;50516;52.272;5.136;2023-08-21T06:14:16;9.88;;;3.15;;
64199;SDS011;50516;52.272;5.136;2023-08-21T06:16:41;8.48;;;3.42;;
64199;SDS011;50516;52.272;5.136;2023-08-21T06:19:08;7.03;;;3.20;;
64199;SDS011;50516;52.272;5.136;2023-08-21T06:21:34;8.93;;;3.38;;
64199;SDS011;50516;52.272;5.136;2023-08-21T06:23:59;8.65;;;3.88;;
64199;SDS011;50516;52.272;5.136;2023-08-21T06:26:24;10.27;;;3.30;;
64199;SDS011;50516;52.272;5.136;2023-08-21T06:28:50;5.22;;;2.70;;
64199;SDS011;50516;52.272;5.136;2023-08-21T06:31:16;8.02;;;4.05;;
64199;SDS011;50516;52.272;5.136;2023-08-21T06:33:41;9.00;;;3.35;;
64199;SDS011;50516;52.272;5.136;2023-08-21T06:36:07;5.93;;;2.80;;
64199;SDS011;50516;52.272;5.136;2023-08-21T06:38:32;12.10;;;3.10;;
64199;SDS011;50516;52.272;5.136;2023-08-21T06:40:57;6.05;;;3.13;;
64199;SDS011;50516;52.272;5.136;2023-08-21T06:43:23;6.80;;;3.33;;
64199;SDS011;50516;52.272;5.136;2023-08-21T06:45:48;8.82;;;3.47;;
64199;SDS011;50516;52.272;5.136;2023-08-21T06:48:13;7.18;;;2.88;;
64199;SDS011;50516;52.272;5.136;2023-08-21T06:50:39;7.97;;;3.00;;
64199;SDS011;50516;52.272;5.136;2023-08-21T06:53:04;7.88;;;3.00;;
64199;SDS011;50516;52.272;5.136;2023-08-21T06:55:29;7.90;;;3.00;;
64199;SDS011;50516;52.272;5.136;2023-08-21T06:57:55;4.22;;;2.65;;
64199;SDS011;50516;52.272;5.136;2023-08-21T07:00:20;4.75;;;2.60;;
64199;SDS011;50516;52.272;5.136;2023-08-21T07:02:45;5.97;;;2.85;;
64199;SDS011;50516;52.272;5.136;2023-08-21T07:05:11;8.93;;;3.80;;
64199;SDS011;50516;52.272;5.136;2023-08-21T07:07:36;8.45;;;3.17;;
64199;SDS011;50516;52.272;5.136;2023-08-21T07:10:01;15.50;;;7.28;;
64199;SDS011;50516;52.272;5.136;2023-08-21T07:12:28;12.85;;;4.78;;
64199;SDS011;50516;52.272;5.136;2023-08-21T07:14:53;9.75;;;5.07;;
64199;SDS011;50516;52.272;5.136;2023-08-21T07:17:19;12.93;;;6.95;;
64199;SDS011;50516;52.272;5.136;2023-08-21T07:19:44;13.20;;;6.25;;
64199;SDS011;50516;52.272;5.136;2023-08-21T07:22:09;14.35;;;5.82;;
64199;SDS011;50516;52.272;5.136;2023-08-21T07:24:35;9.85;;;5.57;;
64199;SDS011;50516;52.272;5.136;2023-08-21T07:27:00;15.90;;;5.35;;
64199;SDS011;50516;52.272;5.136;2023-08-21T07:29:25;10.32;;;4.85;;
64199;SDS011;50516;52.272;5.136;2023-08-21T07:31:50;10.18;;;4.60;;
64199;SDS011;50516;52.272;5.136;2023-08-21T07:34:16;10.85;;;4.50;;
64199;SDS011;50516;52.272;5.136;2023-08-21T07:36:41;10.23;;;4.50;;
64199;SDS011;50516;52.272;5.136;2023-08-21T07:39:06;14.02;;;5.35;;
64199;SDS011;50516;52.272;5.136;2023-08-21T07:41:32;12.02;;;4.38;;
64199;SDS011;50516;52.272;5.136;2023-08-21T07:43:57;9.73;;;4.20;;
64199;SDS011;50516;52.272;5.136;2023-08-21T07:46:22;10.82;;;4.05;;
64199;SDS011;50516;52.272;5.136;2023-08-21T07:48:49;13.65;;;3.75;;
64199;SDS011;50516;52.272;5.136;2023-08-21T07:51:14;11.10;;;3.72;;
64199;SDS011;50516;52.272;5.136;2023-08-21T07:53:40;13.13;;;4.10;;
64199;SDS011;50516;52.272;5.136;2023-08-21T07:56:05;8.68;;;3.35;;
64199;SDS011;50516;52.272;5.136;2023-08-21T07:58:31;13.52;;;4.03;;
64199;SDS011;50516;52.272;5.136;2023-08-21T08:00:57;9.00;;;3.72;;
64199;SDS011;50516;52.272;5.136;2023-08-21T08:03:23;9.95;;;3.90;;
64199;SDS011;50516;52.272;5.136;2023-08-21T08:05:49;7.43;;;3.50;;
64199;SDS011;50516;52.272;5.136;2023-08-21T08:08:16;11.52;;;3.33;;
64199;SDS011;50516;52.272;5.136;2023-08-21T08:10:42;10.70;;;3.55;;
64199;SDS011;50516;52.272;5.136;2023-08-21T08:13:07;11.60;;;3.20;;
64199;SDS011;50516;52.272;5.136;2023-08-21T08:15:33;9.13;;;3.35;;
64199;SDS011;50516;52.272;5.136;2023-08-21T08:18:00;12.00;;;3.00;;
64199;SDS011;50516;52.272;5.136;2023-08-21T08:20:28;11.00;;;2.95;;
64199;SDS011;50516;52.272;5.136;2023-08-21T08:22:54;11.27;;;3.63;;
64199;SDS011;50516;52.272;5.136;2023-08-21T08:25:20;6.68;;;2.75;;
64199;SDS011;50516;52.272;5.136;2023-08-21T08:27:45;7.07;;;2.40;;
64199;SDS011;50516;52.272;5.136;2023-08-21T08:30:11;7.68;;;2.95;;
64199;SDS011;50516;52.272;5.136;2023-08-21T08:32:36;7.13;;;2.80;;
64199;SDS011;50516;52.272;5.136;2023-08-21T08:35:02;9.90;;;3.30;;
64199;SDS011;50516;52.272;5.136;2023-08-21T08:37:27;12.32;;;3.40;;
64199;SDS011;50516;52.272;5.136;2023-08-21T08:39:53;11.13;;;2.60;;
64199;SDS011;50516;52.272;5.136;2023-08-21T08:42:18;10.00;;;2.92;;
64199;SDS011;50516;52.272;5.136;2023-08-21T08:44:43;9.13;;;3.00;;
64199;SDS011;50516;52.272;5.136;2023-08-21T08:47:12;10.32;;;3.28;;
64199;SDS011;50516;52.272;5.136;2023-08-21T08:49:38;11.55;;;3.72;;
64199;SDS011;50516;52.272;5.136;2023-08-21T08:52:03;11.43;;;3.33;;
64199;SDS011;50516;52.272;5.136;2023-08-21T08:54:30;7.38;;;2.90;;
64199;SDS011;50516;52.272;5.136;2023-08-21T08:56:56;7.55;;;3.00;;
64199;SDS011;50516;52.272;5.136;2023-08-21T08:59:21;9.52;;;3.08;;
64199;SDS011;50516;52.272;5.136;2023-08-21T09:01:47;9.90;;;3.50;;
64199;SDS011;50516;52.272;5.136;2023-08-21T09:04:12;10.43;;;3.53;;
64199;SDS011;50516;52.272;5.136;2023-08-21T09:06:38;18.65;;;3.78;;
64199;SDS011;50516;52.272;5.136;2023-08-21T09:09:03;10.15;;;3.28;;
64199;SDS011;50516;52.272;5.136;2023-08-21T09:11:29;12.10;;;3.60;;
64199;SDS011;50516;52.272;5.136;2023-08-21T09:13:54;10.00;;;3.55;;
64199;SDS011;50516;52.272;5.136;2023-08-21T09:16:21;10.82;;;3.53;;
64199;SDS011;50516;52.272;5.136;2023-08-21T09:18:47;10.05;;;3.80;;
64199;SDS011;50516;52.272;5.136;2023-08-21T09:21:20;11.70;;;4.22;;
64199;SDS011;50516;52.272;5.136;2023-08-21T09:23:46;11.25;;;4.10;;
64199;SDS011;50516;52.272;5.136;2023-08-21T09:26:19;13.50;;;5.18;;
64199;SDS011;50516;52.272;5.136;2023-08-21T09:28:48;8.70;;;3.80;;
64199;SDS011;50516;52.272;5.136;2023-08-21T09:31:14;9.18;;;4.30;;
64199;SDS011;50516;52.272;5.136;2023-08-21T09:33:41;9.38;;;3.40;;
64199;SDS011;50516;52.272;5.136;2023-08-21T09:36:06;13.38;;;4.47;;
64199;SDS011;50516;52.272;5.136;2023-08-21T09:38:34;7.00;;;3.28;;
64199;SDS011;50516;52.272;5.136;2023-08-21T09:41:02;9.98;;;3.40;;
64199;SDS011;50516;52.272;5.136;2023-08-21T09:43:28;11.98;;;3.72;;
64199;SDS011;50516;52.272;5.136;2023-08-21T09:45:54;9.38;;;4.07;;
64199;SDS011;50516;52.272;5.136;2023-08-21T09:48:22;9.30;;;2.80;;
64199;SDS011;50516;52.272;5.136;2023-08-21T09:50:50;8.85;;;2.83;;
64199;SDS011;50516;52.272;5.136;2023-08-21T09:53:16;9.77;;;3.15;;
64199;SDS011;50516;52.272;5.136;2023-08-21T09:55:42;11.07;;;3.13;;
64199;SDS011;50516;52.272;5.136;2023-08-21T09:58:07;10.13;;;3.33;;
64199;SDS011;50516;52.272;5.136;2023-08-21T10:00:34;8.40;;;3.42;;
64199;SDS011;50516;52.272;5.136;2023-08-21T10:03:02;11.95;;;3.40;;
64199;SDS011;50516;52.272;5.136;2023-08-21T10:05:35;7.45;;;2.88;;
64199;SDS011;50516;52.272;5.136;2023-08-21T10:08:02;11.93;;;4.22;;
64199;SDS011;50516;52.272;5.136;2023-08-21T10:10:29;12.73;;;3.15;;
64199;SDS011;50516;52.272;5.136;2023-08-21T10:12:56;9.75;;;3.35;;
64199;SDS011;50516;52.272;5.136;2023-08-21T10:15:22;7.78;;;3.75;;
64199;SDS011;50516;52.272;5.136;2023-08-21T10:17:48;10.43;;;3.40;;
64199;SDS011;50516;52.272;5.136;2023-08-21T10:20:14;8.43;;;3.03;;
64199;SDS011;50516;52.272;5.136;2023-08-21T10:22:48;8.45;;;3.10;;
64199;SDS011;50516;52.272;5.136;2023-08-21T10:25:16;8.98;;;2.78;;
64199;SDS011;50516;52.272;5.136;2023-08-21T10:27:45;9.82;;;3.58;;
64199;SDS011;50516;52.272;5.136;2023-08-21T10:30:24;10.07;;;3.17;;
64199;SDS011;50516;52.272;5.136;2023-08-21T10:32:51;7.68;;;2.72;;
64199;SDS011;50516;52.272;5.136;2023-08-21T10:35:23;9.07;;;3.50;;
64199;SDS011;50516;52.272;5.136;2023-08-21T10:38:09;10.30;;;2.47;;
64199;SDS011;50516;52.272;5.136;2023-08-21T10:40:40;9.48;;;3.22;;
64199;SDS011;50516;52.272;5.136;2023-08-21T10:46:04;10.73;;;3.08;;
64199;SDS011;50516;52.272;5.136;2023-08-21T10:48:29;6.10;;;2.85;;
64199;SDS011;50516;52.272;5.136;2023-08-21T10:50:55;7.90;;;2.78;;
64199;SDS011;50516;52.272;5.136;2023-08-21T10:53:21;6.65;;;2.72;;
64199;SDS011;50516;52.272;5.136;2023-08-21T10:55:55;5.38;;;2.30;;
64199;SDS011;50516;52.272;5.136;2023-08-21T10:58:21;10.30;;;3.13;;
64199;SDS011;50516;52.272;5.136;2023-08-21T11:00:46;10.13;;;2.70;;
64199;SDS011;50516;52.272;5.136;2023-08-21T11:03:12;9.50;;;2.30;;
64199;SDS011;50516;52.272;5.136;2023-08-21T11:05:40;8.38;;;3.25;;
64199;SDS011;50516;52.272;5.136;2023-08-21T11:08:05;4.85;;;2.47;;
64199;SDS011;50516;52.272;5.136;2023-08-21T11:10:31;10.20;;;3.08;;
64199;SDS011;50516;52.272;5.136;2023-08-21T11:12:58;6.55;;;2.30;;
64199;SDS011;50516;52.272;5.136;2023-08-21T11:15:24;9.00;;;2.63;;
64199;SDS011;50516;52.272;5.136;2023-08-21T11:18:00;9.63;;;3.08;;
64199;SDS011;50516;52.272;5.136;2023-08-21T11:20:33;6.35;;;3.20;;
64199;SDS011;50516;52.272;5.136;2023-08-21T11:22:59;6.20;;;2.10;;
64199;SDS011;50516;52.272;5.136;2023-08-21T11:25:27;5.65;;;2.05;;
64199;SDS011;50516;52.272;5.136;2023-08-21T11:27:54;9.05;;;3.33;;
64199;SDS011;50516;52.272;5.136;2023-08-21T11:30:21;6.43;;;2.97;;
64199;SDS011;50516;52.272;5.136;2023-08-21T11:32:47;8.05;;;2.88;;
64199;SDS011;50516;52.272;5.136;2023-08-21T11:35:13;7.43;;;2.63;;
64199;SDS011;50516;52.272;5.136;2023-08-21T11:37:43;5.90;;;2.38;;
64199;SDS011;50516;52.272;5.136;2023-08-21T11:40:12;5.30;;;2.22;;
64199;SDS011;50516;52.272;5.136;2023-08-21T11:42:38;6.30;;;2.70;;
64199;SDS011;50516;52.272;5.136;2023-08-21T11:45:04;7.15;;;3.08;;
64199;SDS011;50516;52.272;5.136;2023-08-21T11:47:33;6.47;;;2.08;;
64199;SDS011;50516;52.272;5.136;2023-08-21T11:50:06;6.20;;;2.55;;
64199;SDS011;50516;52.272;5.136;2023-08-21T11:52:34;9.27;;;3.07;;
64199;SDS011;50516;52.272;5.136;2023-08-21T11:55:06;6.22;;;2.63;;
64199;SDS011;50516;52.272;5.136;2023-08-21T11:57:32;7.18;;;2.47;;
64199;SDS011;50516;52.272;5.136;2023-08-21T11:59:58;8.75;;;2.55;;
64199;SDS011;50516;52.272;5.136;2023-08-21T12:02:24;4.80;;;2.42;;
64199;SDS011;50516;52.272;5.136;2023-08-21T12:05:01;7.70;;;2.65;;
64199;SDS011;50516;52.272;5.136;2023-08-21T12:07:28;8.32;;;2.50;;
64199;SDS011;50516;52.272;5.136;2023-08-21T12:09:53;8.98;;;2.67;;
64199;SDS011;50516;52.272;5.136;2023-08-21T12:12:19;7.00;;;2.42;;
64199;SDS011;50516;52.272;5.136;2023-08-21T12:14:44;6.97;;;2.42;;
64199;SDS011;50516;52.272;5.136;2023-08-21T12:17:11;8.98;;;2.50;;
64199;SDS011;50516;52.272;5.136;2023-08-21T12:19:36;4.85;;;2.33;;
64199;SDS011;50516;52.272;5.136;2023-08-21T12:22:02;7.53;;;2.75;;
64199;SDS011;50516;52.272;5.136;2023-08-21T12:24:27;7.55;;;2.70;;
64199;SDS011;50516;52.272;5.136;2023-08-21T12:26:53;7.30;;;2.63;;
64199;SDS011;50516;52.272;5.136;2023-08-21T12:29:18;9.25;;;2.67;;
64199;SDS011;50516;52.272;5.136;2023-08-21T12:31:43;5.35;;;1.83;;
64199;SDS011;50516;52.272;5.136;2023-08-21T12:34:09;7.68;;;3.22;;
64199;SDS011;50516;52.272;5.136;2023-08-21T12:36:35;6.68;;;2.00;;
64199;SDS011;50516;52.272;5.136;2023-08-21T12:39:04;5.43;;;2.25;;
64199;SDS011;50516;52.272;5.136;2023-08-21T12:41:30;5.95;;;1.75;;
64199;SDS011;50516;52.272;5.136;2023-08-21T12:43:58;7.55;;;2.72;;
64199;SDS011;50516;52.272;5.136;2023-08-21T12:46:24;7.25;;;2.40;;
64199;SDS011;50516;52.272;5.136;2023-08-21T12:48:51;7.63;;;2.20;;
64199;SDS011;50516;52.272;5.136;2023-08-21T12:51:16;3.78;;;1.70;;
64199;SDS011;50516;52.272;5.136;2023-08-21T12:53:42;5.65;;;2.38;;
64199;SDS011;50516;52.272;5.136;2023-08-21T12:56:07;8.85;;;2.20;;
64199;SDS011;50516;52.272;5.136;2023-08-21T12:58:32;5.63;;;2.00;;
64199;SDS011;50516;52.272;5.136;2023-08-21T13:00:58;6.65;;;2.33;;
64199;SDS011;50516;52.272;5.136;2023-08-21T13:03:23;5.97;;;1.90;;
64199;SDS011;50516;52.272;5.136;2023-08-21T13:05:49;6.05;;;2.03;;
64199;SDS011;50516;52.272;5.136;2023-08-21T13:08:14;4.47;;;2.10;;
64199;SDS011;50516;52.272;5.136;2023-08-21T13:10:39;5.63;;;1.95;;
64199;SDS011;50516;52.272;5.136;2023-08-21T13:13:05;5.45;;;1.85;;
64199;SDS011;50516;52.272;5.136;2023-08-21T13:15:30;5.85;;;1.88;;
64199;SDS011;50516;52.272;5.136;2023-08-21T13:17:56;4.60;;;2.03;;
64199;SDS011;50516;52.272;5.136;2023-08-21T13:20:22;3.75;;;1.90;;
64199;SDS011;50516;52.272;5.136;2023-08-21T13:22:48;2.65;;;1.58;;
64199;SDS011;50516;52.272;5.136;2023-08-21T13:25:17;2.17;;;1.45;;
64199;SDS011;50516;52.272;5.136;2023-08-21T13:27:43;7.93;;;2.40;;
64199;SDS011;50516;52.272;5.136;2023-08-21T13:30:08;4.80;;;1.98;;
64199;SDS011;50516;52.272;5.136;2023-08-21T13:32:34;5.07;;;1.92;;
64199;SDS011;50516;52.272;5.136;2023-08-21T13:35:00;3.65;;;1.70;;
64199;SDS011;50516;52.272;5.136;2023-08-21T13:37:25;4.28;;;1.60;;
64199;SDS011;50516;52.272;5.136;2023-08-21T13:39:51;4.57;;;2.10;;
64199;SDS011;50516;52.272;5.136;2023-08-21T13:42:17;5.03;;;1.85;;
64199;SDS011;50516;52.272;5.136;2023-08-21T13:44:42;3.58;;;1.83;;
64199;SDS011;50516;52.272;5.136;2023-08-21T13:47:07;2.30;;;1.50;;
64199;SDS011;50516;52.272;5.136;2023-08-21T13:49:33;5.15;;;1.83;;
64199;SDS011;50516;52.272;5.136;2023-08-21T13:51:58;4.63;;;1.90;;
64199;SDS011;50516;52.272;5.136;2023-08-21T13:54:23;4.05;;;2.08;;
64199;SDS011;50516;52.272;5.136;2023-08-21T13:56:48;5.38;;;2.10;;
64199;SDS011;50516;52.272;5.136;2023-08-21T13:59:14;3.47;;;1.63;;
64199;SDS011;50516;52.272;5.136;2023-08-21T14:01:39;3.05;;;1.42;;
64199;SDS011;50516;52.272;5.136;2023-08-21T14:04:04;3.72;;;1.55;;
64199;SDS011;50516;52.272;5.136;2023-08-21T14:06:30;6.72;;;2.08;;
64199;SDS011;50516;52.272;5.136;2023-08-21T14:08:55;6.68;;;1.85;;
64199;SDS011;50516;52.272;5.136;2023-08-21T14:11:20;4.90;;;2.28;;
64199;SDS011;50516;52.272;5.136;2023-08-21T14:13:46;7.55;;;2.30;;
64199;SDS011;50516;52.272;5.136;2023-08-21T14:16:11;5.95;;;2.13;;
64199;SDS011;50516;52.272;5.136;2023-08-21T14:18:37;4.75;;;1.88;;
64199;SDS011;50516;52.272;5.136;2023-08-21T14:21:02;8.40;;;3.17;;
64199;SDS011;50516;52.272;5.136;2023-08-21T14:23:27;8.75;;;2.13;;
64199;SDS011;50516;52.272;5.136;2023-08-21T14:25:53;4.32;;;1.80;;
64199;SDS011;50516;52.272;5.136;2023-08-21T14:28:18;5.65;;;2.30;;
64199;SDS011;50516;52.272;5.136;2023-08-21T14:30:43;3.72;;;2.03;;
64199;SDS011;50516;52.272;5.136;2023-08-21T14:33:10;4.00;;;1.88;;
64199;SDS011;50516;52.272;5.136;2023-08-21T14:35:36;3.97;;;1.92;;
64199;SDS011;50516;52.272;5.136;2023-08-21T14:38:02;4.10;;;2.33;;
64199;SDS011;50516;52.272;5.136;2023-08-21T14:40:27;4.10;;;1.90;;
64199;SDS011;50516;52.272;5.136;2023-08-21T14:42:53;3.90;;;1.85;;
64199;SDS011;50516;52.272;5.136;2023-08-21T14:45:18;2.90;;;1.85;;